createdAt,value
2022-08-16T00:00:38.731Z,24.02
2022-08-16T00:03:13.266Z,24.00
2022-08-16T00:05:47.889Z,23.97
2022-08-16T00:08:36.479Z,23.91
2022-08-16T00:11:05.860Z,23.86
2022-08-16T00:13:41.348Z,23.84
2022-08-16T00:16:57.855Z,23.85
2022-08-16T00:18:59.533Z,23.81
2022-08-16T00:21:29.132Z,23.80
2022-08-16T00:23:57.299Z,23.80
2022-08-16T00:26:35.576Z,23.74
2022-08-16T00:29:12.516Z,23.72
2022-08-16T00:31:59.558Z,23.67
2022-08-16T00:34:52.391Z,23.60
2022-08-16T00:37:21.288Z,23.53
2022-08-16T00:39:57.432Z,23.50
2022-08-16T00:42:31.645Z,23.49
2022-08-16T00:45:08.437Z,23.48
2022-08-16T00:47:49.333Z,23.44
2022-08-16T00:50:20.292Z,23.40
2022-08-16T00:52:50.854Z,23.38
2022-08-16T00:55:22.502Z,23.34
2022-08-16T00:57:59.914Z,23.32
2022-08-16T01:00:31.315Z,23.32
2022-08-16T01:03:02.651Z,23.31
2022-08-16T01:05:32.959Z,23.31
2022-08-16T01:08:30.011Z,23.32
2022-08-16T01:10:52.906Z,23.30
2022-08-16T01:13:24.102Z,23.27
2022-08-16T01:15:57.814Z,23.24
2022-08-16T01:18:39.997Z,23.22
2022-08-16T01:21:33.822Z,23.18
2022-08-16T01:24:52.291Z,23.20
2022-08-16T01:27:17.499Z,23.19
2022-08-16T01:29:58.075Z,23.20
2022-08-16T01:32:33.500Z,23.30
2022-08-16T01:35:06.757Z,23.36
2022-08-16T01:37:44.341Z,23.45
2022-08-16T01:40:26.466Z,23.51
2022-08-16T01:42:55.919Z,23.56
2022-08-16T01:45:24.714Z,23.60
2022-08-16T01:48:19.663Z,23.61
2022-08-16T01:51:08.789Z,23.65
2022-08-16T01:53:40.729Z,23.69
2022-08-16T01:56:24.494Z,23.71
2022-08-16T01:58:56.026Z,23.74
2022-08-16T02:01:27.942Z,23.72
2022-08-16T02:03:58.627Z,23.75
2022-08-16T02:06:46.574Z,23.73
2022-08-16T02:09:17.735Z,23.76
2022-08-16T02:11:52.879Z,23.77
2022-08-16T02:14:26.575Z,23.76
2022-08-16T02:16:56.253Z,23.77
2022-08-16T02:19:59.359Z,23.77
2022-08-16T02:22:34.500Z,23.78
2022-08-16T02:25:09.659Z,23.77
2022-08-16T02:27:41.691Z,23.78
2022-08-16T02:30:36.821Z,23.75
2022-08-16T02:33:04.289Z,23.77
2022-08-16T02:35:33.019Z,23.74
2022-08-16T02:38:08.503Z,23.67
2022-08-16T02:40:37.484Z,23.64
2022-08-16T02:43:07.830Z,23.65
2022-08-16T02:45:36.624Z,23.67
2022-08-16T02:48:29.928Z,23.68
2022-08-16T02:51:06.012Z,23.69
2022-08-16T02:53:40.947Z,23.71
2022-08-16T02:56:15.090Z,23.69
2022-08-16T02:58:46.451Z,23.69
2022-08-16T03:01:24.566Z,23.66
2022-08-16T03:04:39.762Z,23.66
2022-08-16T03:06:56.430Z,23.61
2022-08-16T03:09:28.846Z,23.64
2022-08-16T03:12:02.398Z,23.61
2022-08-16T03:14:33.613Z,23.62
2022-08-16T03:17:02.245Z,23.58
2022-08-16T03:19:48.378Z,23.59
2022-08-16T03:22:28.006Z,23.58
2022-08-16T03:25:01.126Z,23.58
2022-08-16T03:27:32.133Z,23.58
2022-08-16T03:30:15.958Z,23.58
2022-08-16T03:32:51.650Z,23.57
2022-08-16T03:35:23.249Z,23.55
2022-08-16T03:38:02.463Z,23.53
2022-08-16T03:40:34.298Z,23.51
2022-08-16T03:43:20.642Z,23.49
2022-08-16T03:45:53.583Z,23.49
2022-08-16T03:48:36.165Z,23.48
2022-08-16T03:51:09.164Z,23.46
2022-08-16T03:53:39.195Z,23.46
2022-08-16T03:56:19.987Z,23.43
2022-08-16T03:58:51.159Z,23.45
2022-08-16T04:01:29.371Z,23.39
2022-08-16T04:03:58.309Z,23.40
2022-08-16T04:06:28.020Z,23.39
2022-08-16T04:08:56.159Z,23.38
2022-08-16T04:11:25.452Z,23.40
2022-08-16T04:14:00.407Z,23.41
2022-08-16T04:16:43.177Z,23.42
2022-08-16T04:19:12.142Z,23.42
2022-08-16T04:21:45.917Z,23.43
2022-08-16T04:24:16.777Z,23.43
2022-08-16T04:26:45.986Z,23.46
2022-08-16T04:29:23.667Z,23.46
2022-08-16T04:31:56.890Z,23.46
2022-08-16T04:34:29.585Z,23.47
2022-08-16T04:37:01.566Z,23.46
2022-08-16T04:39:45.796Z,23.45
2022-08-16T04:42:17.491Z,23.47
2022-08-16T04:44:53.736Z,23.47
2022-08-16T04:47:32.888Z,23.47
2022-08-16T04:50:02.807Z,23.47
2022-08-16T04:52:35.831Z,23.50
2022-08-16T04:55:06.632Z,23.53
2022-08-16T04:57:37.065Z,23.55
2022-08-16T05:00:32.058Z,23.56
2022-08-16T05:03:01.221Z,23.58
2022-08-16T05:05:36.656Z,23.64
2022-08-16T05:08:29.844Z,23.68
2022-08-16T05:11:00.099Z,23.74
2022-08-16T05:13:41.551Z,23.81
2022-08-16T05:16:20.313Z,23.82
2022-08-16T05:18:56.598Z,23.86
2022-08-16T05:21:27.066Z,23.88
2022-08-16T05:24:06.082Z,23.93
2022-08-16T05:26:37.469Z,23.99
2022-08-16T05:29:15.192Z,24.00
2022-08-16T05:31:53.338Z,24.05
2022-08-16T05:34:25.105Z,24.11
2022-08-16T05:36:57.278Z,24.15
2022-08-16T05:39:28.859Z,24.20
2022-08-16T05:41:57.414Z,24.23
2022-08-16T05:44:25.799Z,24.26
2022-08-16T05:46:56.429Z,24.33
2022-08-16T05:49:38.291Z,24.34
2022-08-16T05:52:11.114Z,24.36
2022-08-16T05:54:47.594Z,24.44
2022-08-16T05:57:17.975Z,24.50
2022-08-16T05:59:47.436Z,24.56
2022-08-16T06:02:21.795Z,24.64
2022-08-16T06:05:00.039Z,24.69
2022-08-16T06:07:32.083Z,24.79
2022-08-16T06:10:02.049Z,24.84
2022-08-16T06:12:32.090Z,24.92
2022-08-16T06:15:04.545Z,24.99
2022-08-16T06:17:42.833Z,25.10
2022-08-16T06:20:23.243Z,25.16
2022-08-16T06:23:02.846Z,25.20
2022-08-16T06:25:36.179Z,25.23
2022-08-16T06:28:10.072Z,25.33
2022-08-16T06:30:43.996Z,25.45
2022-08-16T06:33:22.360Z,25.57
2022-08-16T06:36:08.411Z,25.71
2022-08-16T06:38:37.426Z,25.86
2022-08-16T06:41:14.066Z,25.93
2022-08-16T06:43:43.614Z,26.10
2022-08-16T06:46:24.519Z,26.23
2022-08-16T06:49:01.550Z,26.38
2022-08-16T06:51:48.391Z,26.50
2022-08-16T06:54:18.886Z,26.64
2022-08-16T06:56:47.165Z,26.74
2022-08-16T06:59:25.595Z,26.87
2022-08-16T07:01:55.371Z,27.02
2022-08-16T07:04:32.691Z,27.05
2022-08-16T07:07:03.202Z,27.10
2022-08-16T07:09:31.619Z,27.08
2022-08-16T07:12:03.125Z,27.23
2022-08-16T07:14:32.630Z,27.45
2022-08-16T07:17:00.816Z,27.60
2022-08-16T07:20:03.991Z,27.80
2022-08-16T07:22:37.135Z,27.89
2022-08-16T07:25:11.870Z,28.01
2022-08-16T07:27:40.566Z,28.14
2022-08-16T07:30:38.542Z,28.24
2022-08-16T07:33:03.366Z,28.13
2022-08-16T07:35:32.492Z,28.35
2022-08-16T07:38:01.730Z,28.45
2022-08-16T07:40:59.159Z,28.54
2022-08-16T07:43:20.989Z,28.71
2022-08-16T07:45:53.057Z,28.81
2022-08-16T07:48:21.714Z,29.01
2022-08-16T07:50:55.712Z,29.14
2022-08-16T07:53:30.130Z,29.29
2022-08-16T07:56:00.209Z,29.28
2022-08-16T07:58:34.431Z,29.30
2022-08-16T08:01:10.319Z,29.39
2022-08-16T08:03:48.453Z,29.57
2022-08-16T08:06:19.557Z,29.62
2022-08-16T08:08:52.785Z,29.85
2022-08-16T08:11:29.485Z,30.01
2022-08-16T08:14:03.157Z,30.24
2022-08-16T08:16:32.936Z,30.36
2022-08-16T08:19:02.380Z,30.53
2022-08-16T08:22:01.101Z,30.71
2022-08-16T08:24:31.491Z,30.80
2022-08-16T08:27:03.883Z,30.79
2022-08-16T08:29:37.807Z,30.93
2022-08-16T08:33:00.346Z,31.08
2022-08-16T08:35:03.187Z,31.23
2022-08-16T08:37:55.828Z,31.36
2022-08-16T08:40:24.242Z,31.49
2022-08-16T08:43:00.274Z,31.58
2022-08-16T08:45:48.150Z,31.77
2022-08-16T08:48:33.809Z,31.90
2022-08-16T08:51:05.272Z,32.07
2022-08-16T08:53:39.765Z,32.25
2022-08-16T08:56:23.834Z,32.39
2022-08-16T08:58:58.234Z,32.53
2022-08-16T09:01:36.867Z,32.56
2022-08-16T09:04:14.738Z,32.71
2022-08-16T09:06:46.858Z,32.95
2022-08-16T09:09:17.211Z,32.97
2022-08-16T09:11:53.665Z,32.87
2022-08-16T09:14:38.734Z,32.73
2022-08-16T09:17:38.372Z,32.83
2022-08-16T09:20:07.913Z,32.84
2022-08-16T09:22:36.123Z,32.99
2022-08-16T09:25:11.474Z,33.21
2022-08-16T09:27:57.018Z,33.42
2022-08-16T09:30:33.591Z,33.57
2022-08-16T09:33:07.548Z,33.76
2022-08-16T09:35:38.868Z,33.90
2022-08-16T09:38:08.590Z,33.96
2022-08-16T09:40:42.381Z,33.92
2022-08-16T09:43:46.371Z,33.93
2022-08-16T09:46:45.046Z,34.10
2022-08-16T09:48:56.389Z,34.27
2022-08-16T09:51:26.224Z,34.39
2022-08-16T09:53:58.999Z,34.51
2022-08-16T09:56:33.034Z,34.51
2022-08-16T09:59:08.182Z,34.53
2022-08-16T10:01:38.422Z,34.45
2022-08-16T10:04:31.517Z,34.51
2022-08-16T10:09:53.941Z,34.79
2022-08-16T10:12:42.933Z,35.00
2022-08-16T10:15:16.913Z,34.80
2022-08-16T10:18:00.396Z,34.57
2022-08-16T10:20:34.519Z,34.60
2022-08-16T10:23:07.449Z,34.71
2022-08-16T10:27:19.135Z,34.95
2022-08-16T10:28:27.812Z,35.21
2022-08-16T10:30:59.786Z,35.26
2022-08-16T10:33:29.337Z,35.35
2022-08-16T10:36:03.356Z,35.50
2022-08-16T10:38:32.931Z,35.74
2022-08-16T10:41:01.914Z,35.90
2022-08-16T10:43:31.099Z,36.01
2022-08-16T10:46:01.387Z,35.99
2022-08-16T10:48:31.257Z,36.09
2022-08-16T10:50:59.860Z,36.18
2022-08-16T10:53:33.174Z,36.33
2022-08-16T10:56:02.516Z,36.48
2022-08-16T10:58:34.614Z,36.54
2022-08-16T11:03:56.913Z,36.60
2022-08-16T11:06:27.909Z,36.73
2022-08-16T11:14:34.927Z,36.68
2022-08-16T11:17:09.168Z,36.32
2022-08-16T11:20:00.711Z,36.02
2022-08-16T11:22:41.963Z,35.97
2022-08-16T11:26:07.821Z,36.01
2022-08-16T11:28:07.026Z,36.14
2022-08-16T11:30:37.727Z,36.30
2022-08-16T11:33:10.750Z,36.45
2022-08-16T11:38:51.331Z,36.23
2022-08-16T11:41:15.790Z,36.34
2022-08-16T11:43:43.901Z,36.34
2022-08-16T11:46:42.788Z,36.31
2022-08-16T11:49:09.907Z,36.19
2022-08-16T11:51:43.830Z,36.30
2022-08-16T11:54:21.371Z,36.47
2022-08-16T11:56:52.983Z,36.64
2022-08-16T11:59:28.835Z,36.82
2022-08-16T12:01:59.862Z,37.00
2022-08-16T12:04:30.175Z,36.97
2022-08-16T12:06:58.690Z,37.07
2022-08-16T12:09:29.629Z,36.92
2022-08-16T12:12:03.025Z,36.99
2022-08-16T12:14:35.479Z,36.98
2022-08-16T12:17:08.160Z,37.10
2022-08-16T12:19:38.239Z,37.25
2022-08-16T12:22:19.740Z,37.25
2022-08-16T12:24:52.103Z,37.36
2022-08-16T12:27:23.183Z,37.45
2022-08-16T12:29:52.160Z,37.44
2022-08-16T12:32:37.453Z,37.38
2022-08-16T12:35:12.043Z,37.42
2022-08-16T12:37:41.706Z,37.63
2022-08-16T12:40:17.239Z,37.45
2022-08-16T12:42:58.504Z,37.58
2022-08-16T12:45:29.420Z,37.79
2022-08-16T12:48:34.502Z,37.89
2022-08-16T12:51:10.897Z,37.85
2022-08-16T12:53:47.521Z,38.05
2022-08-16T12:56:15.448Z,38.06
2022-08-16T12:58:51.898Z,38.19
2022-08-16T13:01:22.672Z,38.13
2022-08-16T13:04:03.499Z,38.21
2022-08-16T13:06:42.839Z,38.32
2022-08-16T13:09:23.415Z,38.28
2022-08-16T13:12:04.209Z,38.31
2022-08-16T13:14:36.516Z,38.31
2022-08-16T13:17:08.212Z,38.48
2022-08-16T13:20:06.683Z,38.70
2022-08-16T13:22:27.674Z,38.83
2022-08-16T13:24:55.993Z,38.54
2022-08-16T13:28:02.494Z,38.32
2022-08-16T13:30:36.553Z,38.16
2022-08-16T13:33:10.772Z,38.09
2022-08-16T13:35:43.208Z,37.98
2022-08-16T13:38:24.367Z,37.92
2022-08-16T13:40:55.028Z,37.93
2022-08-16T13:43:26.382Z,38.13
2022-08-16T13:45:56.165Z,38.18
2022-08-16T13:48:25.974Z,38.00
2022-08-16T13:50:56.404Z,37.84
2022-08-16T13:53:28.226Z,37.86
2022-08-16T13:55:58.889Z,37.92
2022-08-16T13:58:37.291Z,38.02
2022-08-16T14:01:18.023Z,38.31
2022-08-16T14:03:47.301Z,38.57
2022-08-16T14:06:15.530Z,38.67
2022-08-16T14:08:58.749Z,38.89
2022-08-16T14:11:34.919Z,38.84
2022-08-16T14:14:05.760Z,38.51
2022-08-16T14:16:35.278Z,38.72
2022-08-16T14:19:03.778Z,38.84
2022-08-16T14:21:34.776Z,38.82
2022-08-16T14:24:16.659Z,38.92
2022-08-16T14:26:51.089Z,39.15
2022-08-16T14:29:22.137Z,39.30
2022-08-16T14:31:53.636Z,39.47
2022-08-16T14:34:25.784Z,39.56
2022-08-16T14:36:58.043Z,39.58
2022-08-16T14:39:29.376Z,39.51
2022-08-16T14:42:04.835Z,39.59
2022-08-16T14:44:34.111Z,39.73
2022-08-16T14:47:04.285Z,39.86
2022-08-16T14:49:32.395Z,40.01
2022-08-16T14:52:01.946Z,40.09
2022-08-16T14:54:31.257Z,40.21
2022-08-16T14:56:59.143Z,40.24
2022-08-16T14:59:27.787Z,40.32
2022-08-16T15:02:00.779Z,40.38
2022-08-16T15:04:39.244Z,40.42
2022-08-16T15:07:17.440Z,40.41
2022-08-16T15:10:00.752Z,40.42
2022-08-16T15:12:33.636Z,40.45
2022-08-16T15:15:12.389Z,40.44
2022-08-16T15:17:56.008Z,40.47
2022-08-16T15:20:29.095Z,40.08
2022-08-16T15:23:00.529Z,39.99
2022-08-16T15:25:33.052Z,40.83
2022-08-16T15:28:02.460Z,41.61
2022-08-16T15:30:56.677Z,42.35
2022-08-16T15:33:25.293Z,42.95
2022-08-16T15:35:55.401Z,43.47
2022-08-16T15:38:55.029Z,43.87
2022-08-16T15:41:54.427Z,44.23
2022-08-16T15:44:26.464Z,44.58
2022-08-16T15:47:00.024Z,44.84
2022-08-16T15:49:34.968Z,45.11
2022-08-16T15:52:10.464Z,45.38
2022-08-16T15:54:51.492Z,45.28
2022-08-16T15:57:24.452Z,45.40
2022-08-16T15:59:56.288Z,45.28
2022-08-16T16:02:40.720Z,45.42
2022-08-16T16:05:10.271Z,45.47
2022-08-16T16:07:55.732Z,45.36
2022-08-16T16:10:29.710Z,45.36
2022-08-16T16:13:01.654Z,45.32
2022-08-16T16:15:36.621Z,45.34
2022-08-16T16:18:09.870Z,45.47
2022-08-16T16:20:43.555Z,45.66
2022-08-16T16:23:12.003Z,45.83
2022-08-16T16:25:44.033Z,45.89
2022-08-16T16:28:46.354Z,45.85
2022-08-16T16:31:06.925Z,45.82
2022-08-16T16:33:38.901Z,45.79
2022-08-16T16:36:09.761Z,45.69
2022-08-16T16:38:39.228Z,45.49
2022-08-16T16:41:11.174Z,45.38
2022-08-16T16:43:43.265Z,45.27
2022-08-16T16:46:40.741Z,45.04
2022-08-16T16:49:04.121Z,44.38
2022-08-16T16:51:40.745Z,43.24
2022-08-16T16:54:09.729Z,42.41
2022-08-16T16:56:46.012Z,41.71
2022-08-16T16:59:19.911Z,41.05
2022-08-16T17:02:00.404Z,40.65
2022-08-16T17:04:38.526Z,40.32
2022-08-16T17:07:10.556Z,39.82
2022-08-16T17:09:40.270Z,39.42
2022-08-16T17:12:10.034Z,39.17
2022-08-16T17:14:43.744Z,38.83
2022-08-16T17:17:13.242Z,38.52
2022-08-16T17:19:41.869Z,38.36
2022-08-16T17:22:14.862Z,38.22
2022-08-16T17:24:45.589Z,38.06
2022-08-16T17:27:32.503Z,37.89
2022-08-16T17:30:15.617Z,37.94
2022-08-16T17:32:50.367Z,38.62
2022-08-16T17:35:34.052Z,39.13
2022-08-16T17:38:05.836Z,38.99
2022-08-16T17:40:46.797Z,38.50
2022-08-16T17:43:23.111Z,38.01
2022-08-16T17:45:52.672Z,37.51
2022-08-16T17:48:21.131Z,37.09
2022-08-16T17:50:49.184Z,36.81
2022-08-16T17:53:23.741Z,36.60
2022-08-16T17:55:54.393Z,36.30
2022-08-16T17:58:24.260Z,35.90
2022-08-16T18:00:57.171Z,35.65
2022-08-16T18:04:07.120Z,35.43
2022-08-16T18:06:18.403Z,35.24
2022-08-16T18:08:48.547Z,35.01
2022-08-16T18:11:25.598Z,34.80
2022-08-16T18:13:55.518Z,34.59
2022-08-16T18:16:25.468Z,34.35
2022-08-16T18:18:53.680Z,34.09
2022-08-16T18:21:40.176Z,33.90
2022-08-16T18:24:08.801Z,33.66
2022-08-16T18:26:37.904Z,33.48
2022-08-16T18:29:07.135Z,33.31
2022-08-16T18:31:36.571Z,33.08
2022-08-16T18:34:05.411Z,32.92
2022-08-16T18:36:33.497Z,32.74
2022-08-16T18:39:01.590Z,32.58
2022-08-16T18:41:30.351Z,32.41
2022-08-16T18:44:25.209Z,32.24
2022-08-16T18:46:50.795Z,32.09
2022-08-16T18:49:19.661Z,31.90
2022-08-16T18:51:47.950Z,31.73
2022-08-16T18:54:19.106Z,31.61
2022-08-16T18:56:55.642Z,31.46
2022-08-16T18:59:26.389Z,31.34
2022-08-16T19:01:59.608Z,31.20
2022-08-16T19:04:56.877Z,31.09
2022-08-16T19:07:21.434Z,30.95
2022-08-16T19:09:49.511Z,30.81
2022-08-16T19:12:17.642Z,30.66
2022-08-16T19:15:07.982Z,30.52
2022-08-16T19:17:41.447Z,30.36
2022-08-16T19:20:11.360Z,30.21
2022-08-16T19:23:02.250Z,30.10
2022-08-16T19:25:48.883Z,30.01
2022-08-16T19:28:51.824Z,29.89
2022-08-16T19:31:13.415Z,29.78
2022-08-16T19:33:53.548Z,29.66
2022-08-16T19:36:31.590Z,29.57
2022-08-16T19:39:07.028Z,29.46
2022-08-16T19:41:40.221Z,29.35
2022-08-16T19:44:08.868Z,29.26
2022-08-16T19:46:37.733Z,29.14
2022-08-16T19:49:07.472Z,29.06
2022-08-16T19:51:35.353Z,28.98
2022-08-16T19:54:05.639Z,28.86
2022-08-16T19:56:33.748Z,28.75
2022-08-16T19:59:18.752Z,28.67
2022-08-16T20:01:49.305Z,28.60
2022-08-16T20:04:19.055Z,28.51
2022-08-16T20:06:47.098Z,28.45
2022-08-16T20:09:15.596Z,28.40
2022-08-16T20:11:45.303Z,28.34
2022-08-16T20:14:24.528Z,28.26
2022-08-16T20:16:59.412Z,28.20
2022-08-16T20:19:32.608Z,28.11
2022-08-16T20:22:09.082Z,28.06
2022-08-16T20:24:37.082Z,27.99
2022-08-16T20:27:09.380Z,27.92
2022-08-16T20:29:39.533Z,27.84
2022-08-16T20:32:09.070Z,27.78
2022-08-16T20:34:39.005Z,27.73
2022-08-16T20:37:07.256Z,27.66
2022-08-16T20:39:35.243Z,27.60
2022-08-16T20:42:03.199Z,27.49
2022-08-16T20:44:31.511Z,27.43
2022-08-16T20:46:59.322Z,27.38
2022-08-16T20:49:28.363Z,27.33
2022-08-16T20:51:59.721Z,27.28
2022-08-16T20:54:29.225Z,27.20
2022-08-16T20:56:57.460Z,27.14
2022-08-16T20:59:25.390Z,27.07
2022-08-16T21:01:53.313Z,27.00
2022-08-16T21:04:25.252Z,26.94
2022-08-16T21:06:55.007Z,26.90
2022-08-16T21:09:27.186Z,26.84
2022-08-16T21:11:57.350Z,26.78
2022-08-16T21:14:26.239Z,26.73
2022-08-16T21:16:54.996Z,26.65
2022-08-16T21:19:23.049Z,26.60
2022-08-16T21:21:51.164Z,26.55
2022-08-16T21:24:19.124Z,26.51
2022-08-16T21:26:55.980Z,26.48
2022-08-16T21:29:39.029Z,26.44
2022-08-16T21:32:14.047Z,26.46
2022-08-16T21:34:43.000Z,26.43
2022-08-16T21:37:12.065Z,26.40
2022-08-16T21:39:44.559Z,26.33
2022-08-16T21:42:18.238Z,26.27
2022-08-16T21:44:46.593Z,26.21
2022-08-16T21:47:14.492Z,26.14
2022-08-16T21:49:42.468Z,26.11
2022-08-16T21:52:25.981Z,26.05
2022-08-16T21:54:56.724Z,25.99
2022-08-16T21:57:26.599Z,25.94
2022-08-16T22:00:06.637Z,25.88
2022-08-16T22:02:38.881Z,25.82
2022-08-16T22:05:08.092Z,25.76
2022-08-16T22:07:35.959Z,25.69
2022-08-16T22:11:04.626Z,25.65
2022-08-16T22:12:54.970Z,25.61
2022-08-16T22:15:25.779Z,25.56
2022-08-16T22:17:56.408Z,25.50
2022-08-16T22:20:25.672Z,25.45
2022-08-16T22:23:04.499Z,25.41
2022-08-16T22:25:32.407Z,25.38
2022-08-16T22:28:02.022Z,25.34
2022-08-16T22:30:29.957Z,25.30
2022-08-16T22:32:57.896Z,25.22
2022-08-16T22:35:26.066Z,25.19
2022-08-16T22:38:55.083Z,25.14
2022-08-16T22:40:42.673Z,25.09
2022-08-16T22:43:12.195Z,25.10
2022-08-16T22:45:40.279Z,25.09
2022-08-16T22:48:08.557Z,25.09
2022-08-16T22:50:37.220Z,25.05
2022-08-16T22:53:06.336Z,25.01
2022-08-16T22:55:35.582Z,24.90
2022-08-16T22:58:04.483Z,24.82
2022-08-16T23:00:34.956Z,24.77
2022-08-16T23:03:07.963Z,24.73
2022-08-16T23:05:38.184Z,24.71
2022-08-16T23:08:09.852Z,24.66
2022-08-16T23:10:38.050Z,24.60
2022-08-16T23:13:08.266Z,24.55
2022-08-16T23:15:43.435Z,24.52
2022-08-16T23:18:14.186Z,24.49
2022-08-16T23:20:42.759Z,24.45
2022-08-16T23:23:19.565Z,24.43
2022-08-16T23:25:55.107Z,24.40
2022-08-16T23:28:25.446Z,24.33
2022-08-16T23:30:57.480Z,24.29
2022-08-16T23:33:27.601Z,24.26
2022-08-16T23:35:59.287Z,24.21
2022-08-16T23:38:37.415Z,24.18
2022-08-16T23:41:11.743Z,24.15
2022-08-16T23:43:43.431Z,24.16
2022-08-16T23:46:16.272Z,24.18
2022-08-16T23:49:58.038Z,24.15
2022-08-16T23:51:33.973Z,24.03
2022-08-16T23:54:02.181Z,23.94
2022-08-16T23:56:32.070Z,23.90
2022-08-16T23:59:08.940Z,23.88
